Latest METARs, TAFs and NOTAMs for WSSL


---------------------------------------------------------------------------
	(OBSERVATIONS)
WSSL 221430Z NIL=
WSSL 221400Z 02011KT 9999 FEW015 BKN350 27/23 Q1009 RMK 1330Z
    Q1009=
WSSL 221330Z NIL=
WSSL 221300Z 04012KT 9999 FEW015 BKN350 27/23 Q1008 RMK 1230Z
    Q1008=
WSSL 221230Z NIL=
WSSL 221200Z 03011KT 9999 FEW018 BKN350 28/23 Q1007 RMK 1130Z
    Q1007=
---------------------------------------------------------------------------
	(TERMINAL AREA FORECAST)
WSSL 221100Z 2212/2318 04009KT 9999 FEW018CB SCT020
    TEMPO 2305/2309 3000 TSRA FEW012CB BKN015=
---------------------------------------------------------------------------
	(NOTAMS)


WSSL A0214/18 ONE MAST, HGT 52.5 FT AMSL, ERECTED AT 012510.3N1035214.61E
    RMK/OUT OF RWY STRIP. MAST MARKED AND LGTD AT NIGHT. 18 JAN
    09:00 2018 UNTIL 18 APR 15:59 2018. CREATED: 18 JAN 09:15
    2018

WSSL A0452/18 TWY EC1 CLSD DUE WIP. 05 FEB 11:25 2018 UNTIL 10
    MAR 23:59 2018. CREATED: 05 FEB 11:26 2018

WSSL A0581/18 ONE MAST, HGT 72.18FT AMSL, ERECTED AT 012512.2N1035215E(BRG45.8DEG,
    DIST0.29NM FM WSSL ARP). RMK/OUT OF RWY STRIP. MAST MARKED
    AND LGTD AT NGT. 13 FEB 16:00 2018 UNTIL 14 MAY 23:59 2018.
    CREATED: 13 FEB 11:58 2018

WSSL A2379/17 MICROWAVE BARRIER DETECTOR (MBD) FOR RWY INCURSION
    DETECTION IN OPERATION AT ALL RWY HOLDING PSN AND AES EMERG
    ROAD. 04 SEP 05:00 2017 UNTIL PERM. CREATED: 07 AUG 04:34
    2017

WSSL A3641/17 BTN THE HOURS OF SUNSET AND SUNRISE, ARR ON RWY
    21 AND DEP ON RWY 03 SUSPENDED DUE UNSERVICEABILITY OF OBSTRUCTION
    LIGHTS ON OBSTACLE 2NM NORTH OF SELETAR. 24 NOV 11:26 2017
    UNTIL 25 FEB 23:00 2018. CREATED: 24 NOV 11:28 2017

---------------------------------------------------------------------------